sensor_id;sensor_type;location;lat;lon;timestamp;temperature;humidity
18898;DHT22;9581;49.484;8.556;2023-11-21T00:02:26;9.20;99.90
18898;DHT22;9581;49.484;8.556;2023-11-21T00:04:53;9.20;99.90
18898;DHT22;9581;49.484;8.556;2023-11-21T00:07:20;9.20;99.90
18898;DHT22;9581;49.484;8.556;2023-11-21T00:09:47;9.30;99.90
18898;DHT22;9581;49.484;8.556;2023-11-21T00:12:14;9.30;99.90
18898;DHT22;9581;49.484;8.556;2023-11-21T00:14:41;9.30;99.90
18898;DHT22;9581;49.484;8.556;2023-11-21T00:17:08;9.30;99.90
18898;DHT22;9581;49.484;8.556;2023-11-21T00:19:36;9.30;99.90
18898;DHT22;9581;49.484;8.556;2023-11-21T00:22:03;9.30;99.90
18898;DHT22;9581;49.484;8.556;2023-11-21T00:24:31;9.30;99.90
18898;DHT22;9581;49.484;8.556;2023-11-21T00:26:58;9.30;99.90
18898;DHT22;9581;49.484;8.556;2023-11-21T00:29:25;9.40;99.90
18898;DHT22;9581;49.484;8.556;2023-11-21T00:31:52;9.40;99.90
18898;DHT22;9581;49.484;8.556;2023-11-21T00:34:19;9.40;99.90
18898;DHT22;9581;49.484;8.556;2023-11-21T00:36:47;9.30;99.90
18898;DHT22;9581;49.484;8.556;2023-11-21T00:39:14;9.30;99.90
18898;DHT22;9581;49.484;8.556;2023-11-21T00:41:41;9.30;99.90
18898;DHT22;9581;49.484;8.556;2023-11-21T00:44:10;9.40;99.90
18898;DHT22;9581;49.484;8.556;2023-11-21T00:46:37;9.40;99.90
18898;DHT22;9581;49.484;8.556;2023-11-21T00:49:03;9.40;99.90
18898;DHT22;9581;49.484;8.556;2023-11-21T00:51:30;9.40;99.90
18898;DHT22;9581;49.484;8.556;2023-11-21T00:53:58;9.40;99.90
18898;DHT22;9581;49.484;8.556;2023-11-21T00:56:25;9.30;99.90
18898;DHT22;9581;49.484;8.556;2023-11-21T00:58:52;9.30;99.90
18898;DHT22;9581;49.484;8.556;2023-11-21T01:01:20;9.40;99.90
18898;DHT22;9581;49.484;8.556;2023-11-21T01:03:47;9.50;99.90
18898;DHT22;9581;49.484;8.556;2023-11-21T01:06:14;9.40;99.90
18898;DHT22;9581;49.484;8.556;2023-11-21T01:08:41;9.40;99.90
18898;DHT22;9581;49.484;8.556;2023-11-21T01:11:09;9.40;99.90
18898;DHT22;9581;49.484;8.556;2023-11-21T01:13:37;9.40;99.90
18898;DHT22;9581;49.484;8.556;2023-11-21T01:16:05;9.30;99.90
18898;DHT22;9581;49.484;8.556;2023-11-21T01:18:32;9.40;99.90
18898;DHT22;9581;49.484;8.556;2023-11-21T01:21:00;9.40;99.90
18898;DHT22;9581;49.484;8.556;2023-11-21T01:23:27;9.30;99.90
18898;DHT22;9581;49.484;8.556;2023-11-21T01:25:56;9.30;99.90
18898;DHT22;9581;49.484;8.556;2023-11-21T01:28:24;9.30;99.90
18898;DHT22;9581;49.484;8.556;2023-11-21T01:30:51;9.40;99.90
18898;DHT22;9581;49.484;8.556;2023-11-21T01:33:22;9.40;99.90
18898;DHT22;9581;49.484;8.556;2023-11-21T01:35:50;9.50;99.90
18898;DHT22;9581;49.484;8.556;2023-11-21T01:38:19;9.40;99.90
18898;DHT22;9581;49.484;8.556;2023-11-21T01:40:46;9.40;99.90
18898;DHT22;9581;49.484;8.556;2023-11-21T01:43:13;9.40;99.90
18898;DHT22;9581;49.484;8.556;2023-11-21T01:45:41;9.50;99.90
18898;DHT22;9581;49.484;8.556;2023-11-21T01:48:08;9.40;99.90
18898;DHT22;9581;49.484;8.556;2023-11-21T01:50:35;9.40;99.90
18898;DHT22;9581;49.484;8.556;2023-11-21T01:53:02;9.40;99.90
18898;DHT22;9581;49.484;8.556;2023-11-21T01:55:30;9.40;99.90
18898;DHT22;9581;49.484;8.556;2023-11-21T01:57:57;9.40;99.90
18898;DHT22;9581;49.484;8.556;2023-11-21T02:00:24;9.40;99.90
18898;DHT22;9581;49.484;8.556;2023-11-21T02:02:52;9.40;99.90
18898;DHT22;9581;49.484;8.556;2023-11-21T02:05:20;9.50;99.90
18898;DHT22;9581;49.484;8.556;2023-11-21T02:07:47;9.50;99.90
18898;DHT22;9581;49.484;8.556;2023-11-21T02:10:14;9.60;99.90
18898;DHT22;9581;49.484;8.556;2023-11-21T02:12:41;9.50;99.90
18898;DHT22;9581;49.484;8.556;2023-11-21T02:15:10;9.50;99.90
18898;DHT22;9581;49.484;8.556;2023-11-21T02:17:44;9.50;99.90
18898;DHT22;9581;49.484;8.556;2023-11-21T02:20:13;9.50;99.90
18898;DHT22;9581;49.484;8.556;2023-11-21T02:22:41;9.60;99.90
18898;DHT22;9581;49.484;8.556;2023-11-21T02:25:10;9.60;99.90
18898;DHT22;9581;49.484;8.556;2023-11-21T02:27:37;9.60;99.90
18898;DHT22;9581;49.484;8.556;2023-11-21T02:30:05;9.50;99.90
18898;DHT22;9581;49.484;8.556;2023-11-21T02:32:33;9.50;99.90
18898;DHT22;9581;49.484;8.556;2023-11-21T02:35:00;9.50;99.90
18898;DHT22;9581;49.484;8.556;2023-11-21T02:37:33;9.50;99.90
18898;DHT22;9581;49.484;8.556;2023-11-21T02:40:00;9.60;99.90
18898;DHT22;9581;49.484;8.556;2023-11-21T02:42:31;9.60;99.90
18898;DHT22;9581;49.484;8.556;2023-11-21T02:44:57;9.60;99.90
18898;DHT22;9581;49.484;8.556;2023-11-21T02:47:24;9.60;99.90
18898;DHT22;9581;49.484;8.556;2023-11-21T02:49:51;9.60;99.90
18898;DHT22;9581;49.484;8.556;2023-11-21T02:52:18;9.60;99.90
18898;DHT22;9581;49.484;8.556;2023-11-21T02:54:46;9.70;99.90
18898;DHT22;9581;49.484;8.556;2023-11-21T02:57:13;9.60;99.90
18898;DHT22;9581;49.484;8.556;2023-11-21T02:59:41;9.60;99.90
18898;DHT22;9581;49.484;8.556;2023-11-21T03:02:08;9.70;99.90
18898;DHT22;9581;49.484;8.556;2023-11-21T03:04:35;9.60;99.90
18898;DHT22;9581;49.484;8.556;2023-11-21T03:07:01;9.60;99.90
18898;DHT22;9581;49.484;8.556;2023-11-21T03:09:30;9.60;99.90
18898;DHT22;9581;49.484;8.556;2023-11-21T03:11:57;9.60;99.90
18898;DHT22;9581;49.484;8.556;2023-11-21T03:14:24;9.50;99.90
18898;DHT22;9581;49.484;8.556;2023-11-21T03:16:52;9.60;99.90
18898;DHT22;9581;49.484;8.556;2023-11-21T03:19:19;9.50;99.90
18898;DHT22;9581;49.484;8.556;2023-11-21T03:21:46;9.70;99.90
18898;DHT22;9581;49.484;8.556;2023-11-21T03:24:13;9.70;99.90
18898;DHT22;9581;49.484;8.556;2023-11-21T03:26:44;9.60;99.90
18898;DHT22;9581;49.484;8.556;2023-11-21T03:29:12;9.70;99.90
18898;DHT22;9581;49.484;8.556;2023-11-21T03:31:39;9.70;99.90
18898;DHT22;9581;49.484;8.556;2023-11-21T03:34:14;9.80;99.90
18898;DHT22;9581;49.484;8.556;2023-11-21T03:36:41;9.80;99.90
18898;DHT22;9581;49.484;8.556;2023-11-21T03:39:08;9.80;99.90
18898;DHT22;9581;49.484;8.556;2023-11-21T03:41:35;9.90;99.90
18898;DHT22;9581;49.484;8.556;2023-11-21T03:44:02;9.90;99.90
18898;DHT22;9581;49.484;8.556;2023-11-21T03:46:29;10.00;99.90
18898;DHT22;9581;49.484;8.556;2023-11-21T03:48:55;10.00;99.90
18898;DHT22;9581;49.484;8.556;2023-11-21T03:51:23;9.90;99.90
18898;DHT22;9581;49.484;8.556;2023-11-21T03:53:50;10.00;99.90
18898;DHT22;9581;49.484;8.556;2023-11-21T03:56:17;10.00;99.90
18898;DHT22;9581;49.484;8.556;2023-11-21T03:58:44;10.10;99.90
18898;DHT22;9581;49.484;8.556;2023-11-21T04:01:10;10.20;99.90
18898;DHT22;9581;49.484;8.556;2023-11-21T04:03:37;10.40;99.90
18898;DHT22;9581;49.484;8.556;2023-11-21T04:06:06;10.30;99.90
18898;DHT22;9581;49.484;8.556;2023-11-21T04:08:34;10.20;99.90
18898;DHT22;9581;49.484;8.556;2023-11-21T04:11:01;10.30;99.90
18898;DHT22;9581;49.484;8.556;2023-11-21T04:13:27;10.40;99.90
18898;DHT22;9581;49.484;8.556;2023-11-21T04:15:54;10.50;99.90
18898;DHT22;9581;49.484;8.556;2023-11-21T04:18:21;10.40;99.90
18898;DHT22;9581;49.484;8.556;2023-11-21T04:20:48;10.20;99.90
18898;DHT22;9581;49.484;8.556;2023-11-21T04:23:16;10.10;99.90
18898;DHT22;9581;49.484;8.556;2023-11-21T04:25:44;10.10;99.90
18898;DHT22;9581;49.484;8.556;2023-11-21T04:28:12;10.00;99.90
18898;DHT22;9581;49.484;8.556;2023-11-21T04:30:38;10.00;99.90
18898;DHT22;9581;49.484;8.556;2023-11-21T04:33:06;10.10;99.90
18898;DHT22;9581;49.484;8.556;2023-11-21T04:35:33;10.10;99.90
18898;DHT22;9581;49.484;8.556;2023-11-21T04:37:59;10.20;99.90
18898;DHT22;9581;49.484;8.556;2023-11-21T04:40:26;10.10;99.90
18898;DHT22;9581;49.484;8.556;2023-11-21T04:42:55;10.20;99.90
18898;DHT22;9581;49.484;8.556;2023-11-21T04:45:22;10.30;99.90
18898;DHT22;9581;49.484;8.556;2023-11-21T04:47:49;10.20;99.90
18898;DHT22;9581;49.484;8.556;2023-11-21T04:50:16;10.20;99.90
18898;DHT22;9581;49.484;8.556;2023-11-21T04:52:43;10.30;99.90
18898;DHT22;9581;49.484;8.556;2023-11-21T04:55:10;10.30;99.90
18898;DHT22;9581;49.484;8.556;2023-11-21T04:57:37;10.30;99.90
18898;DHT22;9581;49.484;8.556;2023-11-21T05:00:06;10.40;99.90
18898;DHT22;9581;49.484;8.556;2023-11-21T05:02:33;10.40;99.90
18898;DHT22;9581;49.484;8.556;2023-11-21T05:05:00;10.40;99.90
18898;DHT22;9581;49.484;8.556;2023-11-21T05:07:27;10.30;99.90
18898;DHT22;9581;49.484;8.556;2023-11-21T05:09:54;10.40;99.90
18898;DHT22;9581;49.484;8.556;2023-11-21T05:12:22;10.30;99.90
18898;DHT22;9581;49.484;8.556;2023-11-21T05:14:49;10.40;99.90
18898;DHT22;9581;49.484;8.556;2023-11-21T05:17:17;10.40;99.90
18898;DHT22;9581;49.484;8.556;2023-11-21T05:19:44;10.30;99.90
18898;DHT22;9581;49.484;8.556;2023-11-21T05:22:13;10.40;99.90
18898;DHT22;9581;49.484;8.556;2023-11-21T05:24:40;10.40;99.90
18898;DHT22;9581;49.484;8.556;2023-11-21T05:27:07;10.40;99.90
18898;DHT22;9581;49.484;8.556;2023-11-21T05:29:35;10.30;99.90
18898;DHT22;9581;49.484;8.556;2023-11-21T05:32:03;10.20;99.90
18898;DHT22;9581;49.484;8.556;2023-11-21T05:34:31;10.20;99.90
18898;DHT22;9581;49.484;8.556;2023-11-21T05:36:58;10.10;99.90
18898;DHT22;9581;49.484;8.556;2023-11-21T05:39:25;10.10;99.90
18898;DHT22;9581;49.484;8.556;2023-11-21T05:41:53;10.30;99.90
18898;DHT22;9581;49.484;8.556;2023-11-21T05:44:20;10.40;99.90
18898;DHT22;9581;49.484;8.556;2023-11-21T05:46:49;10.50;99.90
18898;DHT22;9581;49.484;8.556;2023-11-21T05:49:16;10.50;99.90
18898;DHT22;9581;49.484;8.556;2023-11-21T05:51:48;10.50;99.90
18898;DHT22;9581;49.484;8.556;2023-11-21T05:54:15;10.50;99.90
18898;DHT22;9581;49.484;8.556;2023-11-21T05:56:42;10.60;99.90
18898;DHT22;9581;49.484;8.556;2023-11-21T05:59:09;10.60;99.90
18898;DHT22;9581;49.484;8.556;2023-11-21T06:01:36;10.50;99.90
18898;DHT22;9581;49.484;8.556;2023-11-21T06:04:04;10.40;99.90
18898;DHT22;9581;49.484;8.556;2023-11-21T06:06:31;10.40;99.90
18898;DHT22;9581;49.484;8.556;2023-11-21T06:08:59;10.50;99.90
18898;DHT22;9581;49.484;8.556;2023-11-21T06:11:25;10.60;99.90
18898;DHT22;9581;49.484;8.556;2023-11-21T06:13:52;10.40;99.90
18898;DHT22;9581;49.484;8.556;2023-11-21T06:16:19;10.40;99.90
18898;DHT22;9581;49.484;8.556;2023-11-21T06:18:46;10.50;99.90
18898;DHT22;9581;49.484;8.556;2023-11-21T06:21:13;10.50;99.90
18898;DHT22;9581;49.484;8.556;2023-11-21T06:23:42;10.60;99.90
18898;DHT22;9581;49.484;8.556;2023-11-21T06:26:10;10.50;99.90
18898;DHT22;9581;49.484;8.556;2023-11-21T06:28:38;10.40;99.90
18898;DHT22;9581;49.484;8.556;2023-11-21T06:31:05;10.30;99.90
18898;DHT22;9581;49.484;8.556;2023-11-21T06:33:32;10.30;99.90
18898;DHT22;9581;49.484;8.556;2023-11-21T06:35:59;10.20;99.90
18898;DHT22;9581;49.484;8.556;2023-11-21T06:38:28;10.10;99.90
18898;DHT22;9581;49.484;8.556;2023-11-21T06:40:55;10.00;99.90
18898;DHT22;9581;49.484;8.556;2023-11-21T06:43:25;10.00;99.90
18898;DHT22;9581;49.484;8.556;2023-11-21T06:45:52;10.10;99.90
18898;DHT22;9581;49.484;8.556;2023-11-21T06:48:20;9.90;99.90
18898;DHT22;9581;49.484;8.556;2023-11-21T06:50:46;10.00;99.90
18898;DHT22;9581;49.484;8.556;2023-11-21T06:53:13;10.10;99.90
18898;DHT22;9581;49.484;8.556;2023-11-21T06:55:40;10.00;99.90
18898;DHT22;9581;49.484;8.556;2023-11-21T06:58:07;10.00;99.90
18898;DHT22;9581;49.484;8.556;2023-11-21T07:00:35;10.10;99.90
18898;DHT22;9581;49.484;8.556;2023-11-21T07:03:02;10.00;99.90
18898;DHT22;9581;49.484;8.556;2023-11-21T07:05:30;10.00;99.90
18898;DHT22;9581;49.484;8.556;2023-11-21T07:07:56;10.10;99.90
18898;DHT22;9581;49.484;8.556;2023-11-21T07:10:29;10.00;99.90
18898;DHT22;9581;49.484;8.556;2023-11-21T07:12:56;10.00;99.90
18898;DHT22;9581;49.484;8.556;2023-11-21T07:15:23;10.10;99.90
18898;DHT22;9581;49.484;8.556;2023-11-21T07:17:52;10.00;99.90
18898;DHT22;9581;49.484;8.556;2023-11-21T07:20:19;10.10;99.90
18898;DHT22;9581;49.484;8.556;2023-11-21T07:22:47;10.10;99.90
18898;DHT22;9581;49.484;8.556;2023-11-21T07:25:14;10.10;99.90
18898;DHT22;9581;49.484;8.556;2023-11-21T07:27:41;10.10;99.90
18898;DHT22;9581;49.484;8.556;2023-11-21T07:30:09;10.10;99.90
18898;DHT22;9581;49.484;8.556;2023-11-21T07:32:36;10.10;99.90
18898;DHT22;9581;49.484;8.556;2023-11-21T07:35:07;10.20;99.90
18898;DHT22;9581;49.484;8.556;2023-11-21T07:37:34;10.20;99.90
18898;DHT22;9581;49.484;8.556;2023-11-21T07:40:01;10.20;99.90
18898;DHT22;9581;49.484;8.556;2023-11-21T07:42:28;10.20;99.90
18898;DHT22;9581;49.484;8.556;2023-11-21T07:44:55;10.10;99.90
18898;DHT22;9581;49.484;8.556;2023-11-21T07:47:22;10.30;99.90
18898;DHT22;9581;49.484;8.556;2023-11-21T07:49:52;10.30;99.90
18898;DHT22;9581;49.484;8.556;2023-11-21T07:52:22;10.20;99.90
18898;DHT22;9581;49.484;8.556;2023-11-21T07:54:49;10.30;99.90
18898;DHT22;9581;49.484;8.556;2023-11-21T07:57:16;10.40;99.90
18898;DHT22;9581;49.484;8.556;2023-11-21T07:59:43;10.40;99.90
18898;DHT22;9581;49.484;8.556;2023-11-21T08:02:10;10.40;99.90
18898;DHT22;9581;49.484;8.556;2023-11-21T08:04:36;10.40;99.90
18898;DHT22;9581;49.484;8.556;2023-11-21T08:07:03;10.50;99.90
18898;DHT22;9581;49.484;8.556;2023-11-21T08:09:31;10.40;99.90
18898;DHT22;9581;49.484;8.556;2023-11-21T08:11:59;10.30;99.90
18898;DHT22;9581;49.484;8.556;2023-11-21T08:14:28;10.30;99.90
18898;DHT22;9581;49.484;8.556;2023-11-21T08:16:54;10.40;99.90
18898;DHT22;9581;49.484;8.556;2023-11-21T08:19:23;10.50;99.90
18898;DHT22;9581;49.484;8.556;2023-11-21T08:21:50;10.60;99.90
18898;DHT22;9581;49.484;8.556;2023-11-21T08:24:20;10.70;99.90
18898;DHT22;9581;49.484;8.556;2023-11-21T08:26:48;10.80;99.90
18898;DHT22;9581;49.484;8.556;2023-11-21T08:29:15;10.70;99.90
18898;DHT22;9581;49.484;8.556;2023-11-21T08:31:42;10.70;99.90
18898;DHT22;9581;49.484;8.556;2023-11-21T08:34:10;10.60;99.90
18898;DHT22;9581;49.484;8.556;2023-11-21T08:36:41;10.60;99.90
18898;DHT22;9581;49.484;8.556;2023-11-21T08:39:08;10.50;99.90
18898;DHT22;9581;49.484;8.556;2023-11-21T08:41:36;10.60;99.90
18898;DHT22;9581;49.484;8.556;2023-11-21T08:44:04;10.50;99.90
18898;DHT22;9581;49.484;8.556;2023-11-21T08:46:32;10.50;99.90
18898;DHT22;9581;49.484;8.556;2023-11-21T08:49:01;10.60;99.90
18898;DHT22;9581;49.484;8.556;2023-11-21T08:51:28;10.60;99.90
18898;DHT22;9581;49.484;8.556;2023-11-21T08:53:54;10.60;99.90
18898;DHT22;9581;49.484;8.556;2023-11-21T08:56:24;10.60;99.90
18898;DHT22;9581;49.484;8.556;2023-11-21T08:58:51;10.60;99.90
18898;DHT22;9581;49.484;8.556;2023-11-21T09:01:19;10.60;99.90
18898;DHT22;9581;49.484;8.556;2023-11-21T09:03:46;10.70;99.90
18898;DHT22;9581;49.484;8.556;2023-11-21T09:06:13;10.60;99.90
18898;DHT22;9581;49.484;8.556;2023-11-21T09:08:40;10.70;99.90
18898;DHT22;9581;49.484;8.556;2023-11-21T09:11:09;10.60;99.90
18898;DHT22;9581;49.484;8.556;2023-11-21T09:13:35;10.50;99.90
18898;DHT22;9581;49.484;8.556;2023-11-21T09:16:02;10.60;99.90
18898;DHT22;9581;49.484;8.556;2023-11-21T09:18:30;10.70;99.90
18898;DHT22;9581;49.484;8.556;2023-11-21T09:20:57;10.80;99.90
18898;DHT22;9581;49.484;8.556;2023-11-21T09:23:24;10.80;99.90
18898;DHT22;9581;49.484;8.556;2023-11-21T09:25:51;10.70;99.90
18898;DHT22;9581;49.484;8.556;2023-11-21T09:28:22;10.70;99.90
18898;DHT22;9581;49.484;8.556;2023-11-21T09:30:49;10.70;99.90
18898;DHT22;9581;49.484;8.556;2023-11-21T09:33:16;10.60;99.90
18898;DHT22;9581;49.484;8.556;2023-11-21T09:35:44;10.60;99.90
18898;DHT22;9581;49.484;8.556;2023-11-21T09:38:11;10.50;99.90
18898;DHT22;9581;49.484;8.556;2023-11-21T09:40:38;10.50;99.90
18898;DHT22;9581;49.484;8.556;2023-11-21T09:43:07;10.60;99.90
18898;DHT22;9581;49.484;8.556;2023-11-21T09:45:36;10.50;99.90
18898;DHT22;9581;49.484;8.556;2023-11-21T09:48:05;10.40;99.90
18898;DHT22;9581;49.484;8.556;2023-11-21T09:50:32;10.40;99.90
18898;DHT22;9581;49.484;8.556;2023-11-21T09:53:07;10.40;99.90
18898;DHT22;9581;49.484;8.556;2023-11-21T09:55:37;10.50;99.90
18898;DHT22;9581;49.484;8.556;2023-11-21T09:58:06;10.60;99.90
18898;DHT22;9581;49.484;8.556;2023-11-21T10:00:36;10.60;99.90
18898;DHT22;9581;49.484;8.556;2023-11-21T10:03:03;10.70;99.90
18898;DHT22;9581;49.484;8.556;2023-11-21T10:05:30;10.70;99.90
18898;DHT22;9581;49.484;8.556;2023-11-21T10:07:59;10.60;99.90
18898;DHT22;9581;49.484;8.556;2023-11-21T10:10:29;10.70;99.90
18898;DHT22;9581;49.484;8.556;2023-11-21T10:13:02;10.70;99.90
18898;DHT22;9581;49.484;8.556;2023-11-21T10:15:33;10.60;99.90
18898;DHT22;9581;49.484;8.556;2023-11-21T10:18:02;10.60;99.90
18898;DHT22;9581;49.484;8.556;2023-11-21T10:20:30;10.80;99.90
18898;DHT22;9581;49.484;8.556;2023-11-21T10:22:59;10.90;99.90
18898;DHT22;9581;49.484;8.556;2023-11-21T10:25:28;10.90;99.90
18898;DHT22;9581;49.484;8.556;2023-11-21T10:27:58;11.00;99.90
18898;DHT22;9581;49.484;8.556;2023-11-21T10:30:29;11.10;99.90
18898;DHT22;9581;49.484;8.556;2023-11-21T10:32:59;11.20;99.90
18898;DHT22;9581;49.484;8.556;2023-11-21T10:35:39;11.20;99.90
18898;DHT22;9581;49.484;8.556;2023-11-21T10:38:06;11.40;99.90
18898;DHT22;9581;49.484;8.556;2023-11-21T10:40:39;11.40;99.90
18898;DHT22;9581;49.484;8.556;2023-11-21T10:43:09;11.30;99.90
18898;DHT22;9581;49.484;8.556;2023-11-21T10:45:39;11.10;99.90
18898;DHT22;9581;49.484;8.556;2023-11-21T10:48:07;11.20;99.90
18898;DHT22;9581;49.484;8.556;2023-11-21T10:50:35;11.20;99.90
18898;DHT22;9581;49.484;8.556;2023-11-21T10:53:03;11.20;99.90
18898;DHT22;9581;49.484;8.556;2023-11-21T10:55:30;11.10;99.90
18898;DHT22;9581;49.484;8.556;2023-11-21T10:58:01;11.00;99.90
18898;DHT22;9581;49.484;8.556;2023-11-21T11:00:29;10.90;99.90
18898;DHT22;9581;49.484;8.556;2023-11-21T11:02:56;11.00;99.90
18898;DHT22;9581;49.484;8.556;2023-11-21T11:05:25;10.90;99.90
18898;DHT22;9581;49.484;8.556;2023-11-21T11:07:58;11.00;99.90
18898;DHT22;9581;49.484;8.556;2023-11-21T11:10:27;11.00;99.90
18898;DHT22;9581;49.484;8.556;2023-11-21T11:12:55;10.90;99.90
18898;DHT22;9581;49.484;8.556;2023-11-21T11:15:24;10.90;99.90
18898;DHT22;9581;49.484;8.556;2023-11-21T11:17:52;10.90;99.90
18898;DHT22;9581;49.484;8.556;2023-11-21T11:20:23;10.80;99.90
18898;DHT22;9581;49.484;8.556;2023-11-21T11:23:03;10.90;99.90
18898;DHT22;9581;49.484;8.556;2023-11-21T11:25:53;10.80;99.90
18898;DHT22;9581;49.484;8.556;2023-11-21T11:28:29;10.80;99.90
18898;DHT22;9581;49.484;8.556;2023-11-21T11:31:05;10.90;99.90
18898;DHT22;9581;49.484;8.556;2023-11-21T11:33:41;11.10;99.90
18898;DHT22;9581;49.484;8.556;2023-11-21T11:36:16;11.20;99.90
18898;DHT22;9581;49.484;8.556;2023-11-21T11:38:46;11.40;99.90
18898;DHT22;9581;49.484;8.556;2023-11-21T11:41:24;11.40;99.90
18898;DHT22;9581;49.484;8.556;2023-11-21T11:43:51;11.30;99.90
18898;DHT22;9581;49.484;8.556;2023-11-21T11:46:20;11.30;99.90
18898;DHT22;9581;49.484;8.556;2023-11-21T11:48:48;11.40;99.90
18898;DHT22;9581;49.484;8.556;2023-11-21T11:51:28;11.30;99.90
18898;DHT22;9581;49.484;8.556;2023-11-21T11:53:56;11.20;99.90
18898;DHT22;9581;49.484;8.556;2023-11-21T11:56:25;11.30;99.90
18898;DHT22;9581;49.484;8.556;2023-11-21T11:58:54;11.40;99.90
18898;DHT22;9581;49.484;8.556;2023-11-21T12:01:24;11.50;99.90
18898;DHT22;9581;49.484;8.556;2023-11-21T12:04:25;11.70;99.90
18898;DHT22;9581;49.484;8.556;2023-11-21T12:07:00;12.00;99.90
18898;DHT22;9581;49.484;8.556;2023-11-21T12:09:30;12.10;99.90
18898;DHT22;9581;49.484;8.556;2023-11-21T12:11:57;12.00;99.90
18898;DHT22;9581;49.484;8.556;2023-11-21T12:14:24;12.30;99.90
18898;DHT22;9581;49.484;8.556;2023-11-21T12:16:53;12.40;99.90
18898;DHT22;9581;49.484;8.556;2023-11-21T12:19:20;12.40;99.90
18898;DHT22;9581;49.484;8.556;2023-11-21T12:21:48;12.50;99.90
18898;DHT22;9581;49.484;8.556;2023-11-21T12:24:16;12.40;99.90
18898;DHT22;9581;49.484;8.556;2023-11-21T12:26:43;12.60;99.90
18898;DHT22;9581;49.484;8.556;2023-11-21T12:29:10;12.40;99.90
18898;DHT22;9581;49.484;8.556;2023-11-21T12:31:37;12.10;99.90
18898;DHT22;9581;49.484;8.556;2023-11-21T12:34:06;12.30;99.90
18898;DHT22;9581;49.484;8.556;2023-11-21T12:36:34;12.30;99.90
18898;DHT22;9581;49.484;8.556;2023-11-21T12:39:02;12.30;99.90
18898;DHT22;9581;49.484;8.556;2023-11-21T12:41:29;12.20;99.90
18898;DHT22;9581;49.484;8.556;2023-11-21T12:43:57;12.10;99.90
18898;DHT22;9581;49.484;8.556;2023-11-21T12:46:24;12.00;99.90
18898;DHT22;9581;49.484;8.556;2023-11-21T12:48:54;11.80;99.90
18898;DHT22;9581;49.484;8.556;2023-11-21T12:51:23;11.70;99.90
18898;DHT22;9581;49.484;8.556;2023-11-21T12:53:51;11.70;99.90
18898;DHT22;9581;49.484;8.556;2023-11-21T12:56:18;11.80;99.90
18898;DHT22;9581;49.484;8.556;2023-11-21T12:58:48;11.90;99.90
18898;DHT22;9581;49.484;8.556;2023-11-21T13:01:16;12.10;99.90
18898;DHT22;9581;49.484;8.556;2023-11-21T13:03:47;12.30;99.90
18898;DHT22;9581;49.484;8.556;2023-11-21T13:06:17;12.30;99.90
18898;DHT22;9581;49.484;8.556;2023-11-21T13:08:45;12.20;99.90
18898;DHT22;9581;49.484;8.556;2023-11-21T13:11:13;12.30;99.90
18898;DHT22;9581;49.484;8.556;2023-11-21T13:13:41;12.20;99.90
18898;DHT22;9581;49.484;8.556;2023-11-21T13:16:08;12.20;99.90
18898;DHT22;9581;49.484;8.556;2023-11-21T13:18:35;12.30;99.90
18898;DHT22;9581;49.484;8.556;2023-11-21T13:21:03;12.20;99.90
18898;DHT22;9581;49.484;8.556;2023-11-21T13:23:36;12.30;99.90
18898;DHT22;9581;49.484;8.556;2023-11-21T13:26:05;12.30;99.90
18898;DHT22;9581;49.484;8.556;2023-11-21T13:28:32;12.30;99.90
18898;DHT22;9581;49.484;8.556;2023-11-21T13:33:35;12.20;99.90
18898;DHT22;9581;49.484;8.556;2023-11-21T13:36:04;12.30;99.90
18898;DHT22;9581;49.484;8.556;2023-11-21T13:38:33;12.20;99.90
18898;DHT22;9581;49.484;8.556;2023-11-21T13:41:01;12.10;99.90
18898;DHT22;9581;49.484;8.556;2023-11-21T13:43:34;12.20;99.90
18898;DHT22;9581;49.484;8.556;2023-11-21T13:46:02;12.20;99.90
18898;DHT22;9581;49.484;8.556;2023-11-21T13:48:38;12.30;99.90
18898;DHT22;9581;49.484;8.556;2023-11-21T13:51:08;12.30;99.90
18898;DHT22;9581;49.484;8.556;2023-11-21T13:53:43;12.00;99.90
18898;DHT22;9581;49.484;8.556;2023-11-21T13:56:11;12.10;99.90
18898;DHT22;9581;49.484;8.556;2023-11-21T13:58:43;12.10;99.90
18898;DHT22;9581;49.484;8.556;2023-11-21T14:01:13;12.10;99.90
18898;DHT22;9581;49.484;8.556;2023-11-21T14:03:58;12.10;99.90
18898;DHT22;9581;49.484;8.556;2023-11-21T14:06:34;12.00;99.90
18898;DHT22;9581;49.484;8.556;2023-11-21T14:09:09;11.80;99.90
18898;DHT22;9581;49.484;8.556;2023-11-21T14:11:39;11.80;99.90
18898;DHT22;9581;49.484;8.556;2023-11-21T14:14:07;12.00;99.90
18898;DHT22;9581;49.484;8.556;2023-11-21T14:16:35;12.00;99.90
18898;DHT22;9581;49.484;8.556;2023-11-21T14:19:02;11.90;99.90
18898;DHT22;9581;49.484;8.556;2023-11-21T14:21:39;11.80;99.90
18898;DHT22;9581;49.484;8.556;2023-11-21T14:24:08;11.80;99.90
18898;DHT22;9581;49.484;8.556;2023-11-21T14:26:35;11.80;99.90
18898;DHT22;9581;49.484;8.556;2023-11-21T14:29:02;11.80;99.90
18898;DHT22;9581;49.484;8.556;2023-11-21T14:31:31;11.70;99.90
18898;DHT22;9581;49.484;8.556;2023-11-21T14:33:59;11.70;99.90
18898;DHT22;9581;49.484;8.556;2023-11-21T14:36:27;11.70;99.90
18898;DHT22;9581;49.484;8.556;2023-11-21T14:38:54;11.70;99.90
18898;DHT22;9581;49.484;8.556;2023-11-21T14:41:21;11.70;99.90
18898;DHT22;9581;49.484;8.556;2023-11-21T14:43:47;11.60;99.90
18898;DHT22;9581;49.484;8.556;2023-11-21T14:46:15;11.50;99.90
18898;DHT22;9581;49.484;8.556;2023-11-21T14:48:46;11.50;99.90
18898;DHT22;9581;49.484;8.556;2023-11-21T14:51:24;11.50;99.90
18898;DHT22;9581;49.484;8.556;2023-11-21T14:53:56;11.40;99.90
18898;DHT22;9581;49.484;8.556;2023-11-21T14:56:26;11.40;99.90
18898;DHT22;9581;49.484;8.556;2023-11-21T14:58:57;11.30;99.90
18898;DHT22;9581;49.484;8.556;2023-11-21T15:01:23;11.30;99.90
18898;DHT22;9581;49.484;8.556;2023-11-21T15:04:09;11.20;99.90
18898;DHT22;9581;49.484;8.556;2023-11-21T15:06:46;11.20;99.90
18898;DHT22;9581;49.484;8.556;2023-11-21T15:09:13;11.20;99.90
18898;DHT22;9581;49.484;8.556;2023-11-21T15:12:04;11.20;99.90
18898;DHT22;9581;49.484;8.556;2023-11-21T15:14:39;11.10;99.90
18898;DHT22;9581;49.484;8.556;2023-11-21T15:17:06;11.10;99.90
18898;DHT22;9581;49.484;8.556;2023-11-21T15:19:34;11.10;99.90
18898;DHT22;9581;49.484;8.556;2023-11-21T15:22:01;11.10;99.90
18898;DHT22;9581;49.484;8.556;2023-11-21T15:24:28;11.10;99.90
18898;DHT22;9581;49.484;8.556;2023-11-21T15:26:55;11.20;99.90
18898;DHT22;9581;49.484;8.556;2023-11-21T15:29:22;11.10;99.90
18898;DHT22;9581;49.484;8.556;2023-11-21T15:31:49;11.10;99.90
18898;DHT22;9581;49.484;8.556;2023-11-21T15:34:19;11.00;99.90
18898;DHT22;9581;49.484;8.556;2023-11-21T15:36:48;11.00;99.90
18898;DHT22;9581;49.484;8.556;2023-11-21T15:39:18;11.00;99.90
18898;DHT22;9581;49.484;8.556;2023-11-21T15:41:47;11.00;99.90
18898;DHT22;9581;49.484;8.556;2023-11-21T15:44:13;10.90;99.90
18898;DHT22;9581;49.484;8.556;2023-11-21T15:46:40;10.90;99.90
18898;DHT22;9581;49.484;8.556;2023-11-21T15:49:07;10.90;99.90
18898;DHT22;9581;49.484;8.556;2023-11-21T15:51:38;10.90;99.90
18898;DHT22;9581;49.484;8.556;2023-11-21T15:54:07;10.90;99.90
18898;DHT22;9581;49.484;8.556;2023-11-21T15:56:34;10.90;99.90
18898;DHT22;9581;49.484;8.556;2023-11-21T15:59:02;10.80;99.90
18898;DHT22;9581;49.484;8.556;2023-11-21T16:01:30;10.80;99.90